createdAt,value
2023-02-13T00:03:56.921Z,72.56
2023-02-13T00:09:17.433Z,72.38
2023-02-13T00:14:39.792Z,72.34
2023-02-13T00:20:00.394Z,71.79
2023-02-13T00:25:21.630Z,72.37
2023-02-13T00:30:42.351Z,72.11
2023-02-13T00:36:12.933Z,72.08
2023-02-13T00:41:33.831Z,72.25
2023-02-13T00:46:54.651Z,72.20
2023-02-13T00:52:15.187Z,72.64
2023-02-13T00:57:37.937Z,72.18
2023-02-13T01:02:58.544Z,72.09
2023-02-13T01:08:20.768Z,71.98
2023-02-13T01:13:41.568Z,71.88
2023-02-13T01:19:02.065Z,72.14
2023-02-13T01:24:25.389Z,71.71
2023-02-13T01:29:45.988Z,71.98
2023-02-13T01:35:07.803Z,71.82
2023-02-13T01:40:30.065Z,71.68
2023-02-13T01:45:56.327Z,72.31
2023-02-13T01:51:23.468Z,72.26
2023-02-13T01:56:48.675Z,72.01
2023-02-13T02:02:09.874Z,72.02
2023-02-13T02:07:31.653Z,71.90
2023-02-13T02:13:08.470Z,72.28
2023-02-13T02:18:31.238Z,72.12
2023-02-13T02:24:43.869Z,72.02
2023-02-13T02:30:17.656Z,72.62
2023-02-13T02:35:56.426Z,72.11
2023-02-13T02:41:45.556Z,72.26
2023-02-13T02:47:35.809Z,72.51
2023-02-13T02:53:22.041Z,72.64
2023-02-13T02:59:26.303Z,72.08
2023-02-13T03:05:10.765Z,71.89
2023-02-13T03:10:53.367Z,72.14
2023-02-13T03:16:37.918Z,72.83
2023-02-13T03:22:28.653Z,72.37
2023-02-13T03:28:40.818Z,72.47
2023-02-13T03:34:04.841Z,72.73
2023-02-13T03:39:43.477Z,72.17
2023-02-13T03:45:47.789Z,71.45
2023-02-13T03:51:12.382Z,71.71
2023-02-13T03:56:54.312Z,72.22
2023-02-13T04:02:21.533Z,72.33
2023-02-13T04:07:42.169Z,72.90
2023-02-13T04:13:20.873Z,72.16
2023-02-13T04:18:42.853Z,72.38
2023-02-13T04:24:04.600Z,72.53
2023-02-13T04:29:27.384Z,72.11
2023-02-13T04:34:48.157Z,72.58
2023-02-13T04:40:09.677Z,72.59
2023-02-13T04:45:30.441Z,72.91
2023-02-13T04:50:51.217Z,72.73
2023-02-13T04:56:11.939Z,72.36
2023-02-13T05:01:32.768Z,72.17
2023-02-13T05:06:53.282Z,72.64
2023-02-13T05:12:14.050Z,72.16
2023-02-13T05:17:34.769Z,72.42
2023-02-13T05:23:13.852Z,73.16
2023-02-13T05:28:52.987Z,73.11
2023-02-13T05:34:14.008Z,72.92
2023-02-13T05:39:34.903Z,72.99
2023-02-13T05:44:55.499Z,72.46
2023-02-13T05:50:16.478Z,73.24
2023-02-13T05:55:38.752Z,72.91
2023-02-13T06:01:00.572Z,72.86
2023-02-13T06:06:22.796Z,73.37
2023-02-13T06:11:43.553Z,72.78
2023-02-13T06:17:04.332Z,72.57
2023-02-13T06:22:25.104Z,73.13
2023-02-13T06:27:46.717Z,73.45
2023-02-13T06:33:07.762Z,73.04
2023-02-13T06:38:28.736Z,73.11
2023-02-13T06:43:49.376Z,73.56
2023-02-13T06:49:10.331Z,73.53
2023-02-13T06:54:46.246Z,72.63
2023-02-13T07:00:08.749Z,72.53
2023-02-13T07:05:30.218Z,72.96
2023-02-13T07:10:51.130Z,73.36
2023-02-13T07:16:11.790Z,72.90
2023-02-13T07:21:32.334Z,73.04
2023-02-13T07:26:53.017Z,73.00
2023-02-13T07:32:13.665Z,73.14
2023-02-13T07:37:34.573Z,73.20
2023-02-13T07:42:56.023Z,73.19
2023-02-13T07:48:17.079Z,73.27
2023-02-13T07:53:37.791Z,73.63
2023-02-13T07:58:58.725Z,73.56
2023-02-13T08:04:19.303Z,72.92
2023-02-13T08:09:58.496Z,72.90
2023-02-13T08:15:19.499Z,73.19
2023-02-13T08:20:40.372Z,73.10
2023-02-13T08:26:02.090Z,73.55
2023-02-13T08:31:23.470Z,74.01
2023-02-13T08:36:44.280Z,72.85
2023-02-13T08:42:04.989Z,72.44
2023-02-13T08:47:25.718Z,73.01
2023-02-13T08:52:46.637Z,72.83
2023-02-13T08:58:07.153Z,72.41
2023-02-13T09:03:27.895Z,72.57
2023-02-13T09:08:48.486Z,73.02
2023-02-13T09:14:09.320Z,73.21
2023-02-13T09:19:29.925Z,74.34
2023-02-13T09:24:50.740Z,73.79
2023-02-13T09:30:13.122Z,72.68
2023-02-13T09:35:33.921Z,72.79
2023-02-13T09:40:59.868Z,72.64
2023-02-13T09:46:27.038Z,72.85
2023-02-13T09:51:55.786Z,72.86
2023-02-13T09:57:25.877Z,72.76
2023-02-13T10:02:53.479Z,73.01
2023-02-13T10:08:29.658Z,72.93
2023-02-13T10:13:53.517Z,72.91
2023-02-13T10:19:38.378Z,72.41
2023-02-13T10:25:24.157Z,72.15
2023-02-13T10:31:00.889Z,72.40
2023-02-13T10:36:34.070Z,72.17
2023-02-13T10:41:58.680Z,72.17
2023-02-13T10:47:59.304Z,71.92
2023-02-13T10:53:25.902Z,71.70
2023-02-13T10:59:05.367Z,71.36
2023-02-13T11:04:25.888Z,71.05
2023-02-13T11:09:49.636Z,71.04
2023-02-13T11:15:20.967Z,70.78
2023-02-13T11:20:44.713Z,70.84
2023-02-13T11:26:32.940Z,70.81
2023-02-13T11:32:15.752Z,70.70
2023-02-13T11:37:37.630Z,72.19
2023-02-13T11:42:58.421Z,70.25
2023-02-13T11:48:23.345Z,69.65
2023-02-13T11:53:44.139Z,69.49
2023-02-13T11:59:05.527Z,69.26
2023-02-13T12:04:26.182Z,69.13
2023-02-13T12:09:55.464Z,69.05
2023-02-13T12:15:20.933Z,68.95
2023-02-13T12:21:05.847Z,68.79
2023-02-13T12:26:33.589Z,68.83
2023-02-13T12:32:20.150Z,68.43
2023-02-13T12:38:15.625Z,68.65
2023-02-13T12:44:02.508Z,68.14
2023-02-13T12:49:44.852Z,68.53
2023-02-13T12:55:41.840Z,68.42
2023-02-13T13:01:05.675Z,68.44
2023-02-13T13:06:34.963Z,68.06
2023-02-13T13:12:07.866Z,68.31
2023-02-13T13:17:44.107Z,67.94
2023-02-13T13:23:12.320Z,67.74
2023-02-13T13:28:37.286Z,67.36
2023-02-13T13:34:02.347Z,67.28
2023-02-13T13:39:44.398Z,67.11
2023-02-13T13:45:35.656Z,67.20
2023-02-13T13:50:57.270Z,66.88
2023-02-13T13:56:18.268Z,66.89
2023-02-13T14:01:39.002Z,66.57
2023-02-13T14:06:59.449Z,66.46
2023-02-13T14:12:29.471Z,66.78
2023-02-13T14:17:52.451Z,66.75
2023-02-13T14:23:28.588Z,66.44
2023-02-13T14:28:49.448Z,66.35
2023-02-13T14:34:15.039Z,66.54
2023-02-13T14:39:36.621Z,66.16
2023-02-13T14:45:00.637Z,66.28
2023-02-13T14:50:26.667Z,67.25
2023-02-13T14:55:53.976Z,66.79
2023-02-13T15:01:24.261Z,66.25
2023-02-13T15:06:46.798Z,66.31
2023-02-13T15:12:32.431Z,65.88
2023-02-13T15:18:00.758Z,66.29
2023-02-13T15:23:28.421Z,66.29
2023-02-13T15:29:29.299Z,66.34
2023-02-13T15:34:53.730Z,65.96
2023-02-13T15:40:35.647Z,66.08
2023-02-13T15:46:01.498Z,66.92
2023-02-13T15:51:29.778Z,66.04
2023-02-13T15:56:52.072Z,66.26
2023-02-13T16:02:46.196Z,66.05
2023-02-13T16:08:30.686Z,66.22
2023-02-13T16:14:18.461Z,66.33
2023-02-13T16:19:51.358Z,66.81
2023-02-13T16:25:28.705Z,66.29
2023-02-13T16:30:57.501Z,65.94
2023-02-13T16:36:27.308Z,66.01
2023-02-13T16:41:48.437Z,66.15
2023-02-13T16:47:22.276Z,66.00
2023-02-13T16:52:43.188Z,66.24
2023-02-13T16:58:05.482Z,65.95
2023-02-13T17:03:26.398Z,66.11
2023-02-13T17:08:47.036Z,65.98
2023-02-13T17:14:07.944Z,66.04
2023-02-13T17:19:31.222Z,65.88
2023-02-13T17:24:51.898Z,65.58
2023-02-13T17:30:21.788Z,65.76
2023-02-13T17:35:42.613Z,65.73
2023-02-13T17:41:03.294Z,65.75
2023-02-13T17:46:24.191Z,65.87
2023-02-13T17:51:46.016Z,68.84
2023-02-13T17:57:06.598Z,66.26
2023-02-13T18:02:27.965Z,66.21
2023-02-13T18:07:49.040Z,65.91
2023-02-13T18:13:10.105Z,66.17
2023-02-13T18:18:30.839Z,66.29
2023-02-13T18:23:53.379Z,65.86
2023-02-13T18:29:14.357Z,65.87
2023-02-13T18:34:37.003Z,66.13
2023-02-13T18:39:58.668Z,67.78
2023-02-13T18:45:19.600Z,66.82
2023-02-13T18:50:42.266Z,66.19
2023-02-13T18:56:05.870Z,66.96
2023-02-13T19:01:27.001Z,65.99
2023-02-13T19:06:47.789Z,65.50
2023-02-13T19:12:08.611Z,65.70
2023-02-13T19:17:29.587Z,65.62
2023-02-13T19:22:50.255Z,65.81
2023-02-13T19:28:11.351Z,66.40
2023-02-13T19:33:32.218Z,66.55
2023-02-13T19:38:58.354Z,66.20
2023-02-13T19:44:19.551Z,65.91
2023-02-13T19:49:40.271Z,66.15
2023-02-13T19:55:01.840Z,66.33
2023-02-13T20:00:24.591Z,66.60
2023-02-13T20:05:45.665Z,66.06
2023-02-13T20:11:13.085Z,65.91
2023-02-13T20:16:35.595Z,66.05
2023-02-13T20:21:56.540Z,66.34
2023-02-13T20:27:17.371Z,66.76
2023-02-13T20:32:38.506Z,66.23
2023-02-13T20:38:00.261Z,66.27
2023-02-13T20:43:21.091Z,66.25
2023-02-13T20:48:43.763Z,66.52
2023-02-13T20:54:05.173Z,67.13
2023-02-13T20:59:26.001Z,66.40
2023-02-13T21:04:47.329Z,66.83
2023-02-13T21:10:08.764Z,67.08
2023-02-13T21:15:30.222Z,66.80
2023-02-13T21:20:51.437Z,66.49
2023-02-13T21:26:17.276Z,66.65
2023-02-13T21:31:44.210Z,66.52
2023-02-13T21:37:05.541Z,66.32
2023-02-13T21:42:26.171Z,66.88
2023-02-13T21:47:47.335Z,66.16
2023-02-13T21:53:08.627Z,66.85
2023-02-13T21:58:33.280Z,65.60
2023-02-13T22:03:59.842Z,66.82
2023-02-13T22:09:22.485Z,66.84
2023-02-13T22:14:43.396Z,65.96
2023-02-13T22:20:04.550Z,66.39
2023-02-13T22:25:25.368Z,67.34
2023-02-13T22:30:46.188Z,66.64
2023-02-13T22:36:07.245Z,66.30
2023-02-13T22:41:28.390Z,66.49
2023-02-13T22:46:49.174Z,66.19
2023-02-13T22:52:10.827Z,66.37
2023-02-13T22:57:31.655Z,66.66
2023-02-13T23:02:52.363Z,66.65
2023-02-13T23:08:13.632Z,66.96
2023-02-13T23:13:34.399Z,66.88
2023-02-13T23:18:56.697Z,67.00
2023-02-13T23:24:17.400Z,66.94
2023-02-13T23:29:38.735Z,67.34
2023-02-13T23:34:59.703Z,67.45
2023-02-13T23:40:20.588Z,67.89
2023-02-13T23:45:41.536Z,67.54
2023-02-13T23:51:02.709Z,67.79
2023-02-13T23:56:24.921Z,67.37
